Alvadore, OR (97409)

1:56 PM PST on February 07, 2016 (GMT -0800)
Alvadore | | Change Station
CLOSE
Current Station
Personal Weather Station
Location: Eugene, OR
Elevation: 397 ft
Nearby Weather Stations

Elev 397 ft 44.11 °N, 123.27 °W | Updated 8 seconds ago

Overcast
Overcast
46.6 °F
Feels Like 47 °F
N
2.2
Wind Variable Wind from North
Gusts 2.2 mph

Today
High -- | Low -- °F
--% Chance of Precip.
Yesterday
High -- | Low -- °F
Precip. -- in
Pressure 30.48 in
Visibility 2.0 miles
Clouds Overcast 400 ft
Windchill 47 °F
Dew Point 46 °F
Humidity 96%
Rainfall 0.00 in
Snow Depth Not available.
7:23 AM 5:30 PM
Waning Crescent, 1% visible
METAR KEUG 072154Z 02004KT 2SM BR OVC004 08/07 A3047 RMK AO2 TWR VIS 2 1/2 SLP319 T00830072 $
Pressure 30.48 in
Visibility 2.0 miles
Clouds Overcast 400 ft
Windchill 47 °F
Dew Point 46 °F
Humidity 96%
Rainfall 0.00 in
Snow Depth Not available.
7:23 AM 5:30 PM
Waning Crescent, 1% visible
METAR KEUG 072154Z 02004KT 2SM BR OVC004 08/07 A3047 RMK AO2 TWR VIS 2 1/2 SLP319 T00830072 $

10-Day Weather Forecast

Almanac

Astronomy

Feb. 07, 2016 Rise Set
Actual Time
Civil Twilight
Nautical Twilight
Astronomical Twilight
Moon
Length of Visible Light
Length of Day
Tomorrow will be .
, % of the Moon is Illuminated

Today's Extremes

State Highs State Lows

Community

WunderPhotos

Upload Photos

1,891,304 photos uploaded!

WunderBlog® & News

Nearby

Air Quality

  Air Quality AQ Index Pollutant
Not available.

Snow Depth

Station Depth Elevation

Earthquake Activity

City Distance Mag. Time & Date
Minimum magnitude displayed is 2.5.

Coastal Water Temperatures

Place Temperature

Stations

Nearby Weather Stations

Station Location Temp. Windchill Dew Point Humidity Wind Precip. Elev Updated Type
                   

Watches & Warnings

There are currently no watches in effect.